ABR290 LEBL-LFPG
Flight info
| Callsign | ABR290 |
|---|---|
| Flight time | 1h 24m |
| Altitude | 30000 |
| Route | OLOXO DCT OKABI/N0455F340 DCT TOU DCT POI/N0455F300 DCT PEPAX UT182 KEPER |
| Aircraft | B738/M-SDE2E3FGHIRWXY/LB1 |
Departure
| Time | 2026-05-09 01:07 |
|---|---|
| Airport | Josep Tarradellas Barcelona-El Prat Airport (LEBL) |
Arrival
| Time | 2026-05-09 02:31 |
|---|---|
| Airport | Charles de Gaulle International Airport (LFPG) |
| Time | Latitude | Longitude | Altitude | Speed | Heading |
|---|---|---|---|---|---|
| 2026-05-09 00:36 | 41.29943 | 2.06811 | 1 ft | 0 kts | 335° |
| 2026-05-09 00:58 | 41.29938 | 2.06814 | 1 ft | 4 kts | 335° |
| 2026-05-09 00:58 | 41.29914 | 2.06830 | 2 ft | 4 kts | 328° |
| 2026-05-09 00:58 | 41.29892 | 2.06851 | 2 ft | 4 kts | 317° |
| 2026-05-09 00:59 | 41.29876 | 2.06877 | 2 ft | 4 kts | 285° |
| 2026-05-09 00:59 | 41.29874 | 2.06895 | 2 ft | 2 kts | 246° |
| 2026-05-09 00:59 | 41.29875 | 2.06897 | 2 ft | 1 kts | 245° |
| 2026-05-09 01:03 | 41.29875 | 2.06896 | 2 ft | 0 kts | 245° |
| 2026-05-09 01:03 | 41.29868 | 2.06878 | 2 ft | 6 kts | 245° |
| 2026-05-09 01:03 | 41.29848 | 2.06820 | 3 ft | 7 kts | 245° |
| 2026-05-09 01:03 | 41.29825 | 2.06762 | 2 ft | 7 kts | 230° |
| 2026-05-09 01:04 | 41.29782 | 2.06739 | 2 ft | 7 kts | 180° |
| 2026-05-09 01:04 | 41.29736 | 2.06755 | 2 ft | 7 kts | 159° |
| 2026-05-09 01:04 | 41.29694 | 2.06780 | 3 ft | 7 kts | 152° |
| 2026-05-09 01:04 | 41.29654 | 2.06810 | 2 ft | 6 kts | 150° |
| 2026-05-09 01:05 | 41.29624 | 2.06852 | 1 ft | 6 kts | 115° |
| 2026-05-09 01:05 | 41.29597 | 2.06911 | 2 ft | 11 kts | 137° |
| 2026-05-09 01:05 | 41.29446 | 2.07027 | 1 ft | 13 kts | 121° |
| 2026-05-09 01:06 | 41.29461 | 2.07134 | 2 ft | 12 kts | 65° |
| 2026-05-09 01:06 | 41.29535 | 2.07353 | 5 ft | 54 kts | 65° |
| 2026-05-09 01:06 | 41.29783 | 2.08072 | 5 ft | 114 kts | 66° |
| 2026-05-09 01:06 | 41.30168 | 2.09220 | 55 ft | 153 kts | 68° |
| 2026-05-09 01:07 | 41.30584 | 2.10596 | 379 ft | 175 kts | 71° |
| 2026-05-09 01:07 | 41.30957 | 2.12282 | 684 ft | 200 kts | 72° |
| 2026-05-09 01:07 | 41.31585 | 2.14008 | 1023 ft | 213 kts | 62° |
| 2026-05-09 01:07 | 41.32276 | 2.15766 | 1494 ft | 216 kts | 65° |
| 2026-05-09 01:08 | 41.33018 | 2.17562 | 1873 ft | 228 kts | 53° |
| 2026-05-09 01:08 | 41.34265 | 2.18948 | 2194 ft | 244 kts | 40° |
| 2026-05-09 01:08 | 41.35433 | 2.20661 | 2654 ft | 255 kts | 54° |
| 2026-05-09 01:08 | 41.36519 | 2.22531 | 3370 ft | 260 kts | 53° |
| 2026-05-09 01:09 | 41.37659 | 2.24400 | 4000 ft | 256 kts | 52° |
| 2026-05-09 01:09 | 41.38792 | 2.26212 | 4630 ft | 254 kts | 52° |
| 2026-05-09 01:09 | 41.39946 | 2.28036 | 5210 ft | 261 kts | 51° |
| 2026-05-09 01:09 | 41.41123 | 2.29889 | 5696 ft | 262 kts | 51° |
| 2026-05-09 01:10 | 41.42305 | 2.31748 | 6205 ft | 263 kts | 51° |
| 2026-05-09 01:10 | 41.43504 | 2.33605 | 6698 ft | 265 kts | 49° |
| 2026-05-09 01:10 | 41.44770 | 2.35450 | 7088 ft | 277 kts | 48° |
| 2026-05-09 01:10 | 41.46110 | 2.37374 | 7606 ft | 287 kts | 48° |
| 2026-05-09 01:11 | 41.47481 | 2.39351 | 8242 ft | 292 kts | 48° |
| 2026-05-09 01:11 | 41.48872 | 2.41365 | 8901 ft | 298 kts | 48° |
| 2026-05-09 01:11 | 41.50285 | 2.43418 | 9545 ft | 303 kts | 48° |
| 2026-05-09 01:11 | 41.51767 | 2.45462 | 10152 ft | 310 kts | 38° |
| 2026-05-09 01:12 | 41.53695 | 2.46769 | 10395 ft | 326 kts | 12° |
| 2026-05-09 01:12 | 41.55986 | 2.47337 | 10591 ft | 345 kts | 7° |
| 2026-05-09 01:12 | 41.58415 | 2.47866 | 10831 ft | 361 kts | 8° |
| 2026-05-09 01:12 | 41.60925 | 2.48440 | 11302 ft | 369 kts | 8° |
| 2026-05-09 01:13 | 41.63471 | 2.48923 | 11916 ft | 370 kts | 358° |
| 2026-05-09 01:13 | 41.65989 | 2.48411 | 12544 ft | 366 kts | 337° |
| 2026-05-09 01:13 | 41.68200 | 2.46788 | 13172 ft | 362 kts | 316° |
| 2026-05-09 01:13 | 41.69840 | 2.44278 | 13851 ft | 357 kts | 298° |
| 2026-05-09 01:14 | 41.70808 | 2.41254 | 14488 ft | 353 kts | 280° |
| 2026-05-09 01:14 | 41.71190 | 2.38022 | 15204 ft | 351 kts | 274° |
| 2026-05-09 01:14 | 41.71463 | 2.34778 | 15966 ft | 351 kts | 274° |
| 2026-05-09 01:14 | 41.71711 | 2.31562 | 16610 ft | 353 kts | 273° |
| 2026-05-09 01:15 | 41.71965 | 2.28277 | 17239 ft | 357 kts | 273° |
| 2026-05-09 01:15 | 41.72234 | 2.24910 | 17854 ft | 360 kts | 274° |
| 2026-05-09 01:15 | 41.72507 | 2.21612 | 18470 ft | 363 kts | 274° |
| 2026-05-09 01:15 | 41.72790 | 2.18242 | 19047 ft | 364 kts | 274° |
| 2026-05-09 01:16 | 41.73076 | 2.14866 | 19627 ft | 366 kts | 273° |
| 2026-05-09 01:16 | 41.73365 | 2.11464 | 20177 ft | 368 kts | 273° |
| 2026-05-09 01:16 | 41.73655 | 2.08041 | 20723 ft | 371 kts | 273° |
| 2026-05-09 01:17 | 41.74239 | 2.01140 | 21787 ft | 375 kts | 273° |
| 2026-05-09 01:17 | 41.74532 | 1.97661 | 22304 ft | 378 kts | 272° |
| 2026-05-09 01:17 | 41.74826 | 1.94154 | 22803 ft | 380 kts | 272° |
| 2026-05-09 01:17 | 41.75121 | 1.90623 | 23343 ft | 382 kts | 272° |
| 2026-05-09 01:18 | 41.75464 | 1.87081 | 23798 ft | 387 kts | 278° |
| 2026-05-09 01:18 | 41.76493 | 1.83684 | 24189 ft | 402 kts | 296° |
| 2026-05-09 01:18 | 41.78298 | 1.80770 | 24721 ft | 412 kts | 310° |
| 2026-05-09 01:18 | 41.80655 | 1.78485 | 25119 ft | 429 kts | 327° |
| 2026-05-09 01:19 | 41.83482 | 1.77023 | 25474 ft | 440 kts | 335° |
| 2026-05-09 01:19 | 41.86411 | 1.75775 | 25825 ft | 444 kts | 336° |
| 2026-05-09 01:19 | 41.89342 | 1.74581 | 26166 ft | 447 kts | 336° |
| 2026-05-09 01:19 | 41.92335 | 1.73364 | 26525 ft | 449 kts | 336° |
| 2026-05-09 01:20 | 41.95324 | 1.72129 | 26885 ft | 451 kts | 335° |
| 2026-05-09 01:20 | 41.98325 | 1.70868 | 27253 ft | 453 kts | 335° |
| 2026-05-09 01:20 | 42.01340 | 1.69585 | 27629 ft | 454 kts | 335° |
| 2026-05-09 01:20 | 42.04353 | 1.68290 | 27972 ft | 456 kts | 335° |
| 2026-05-09 01:21 | 42.07385 | 1.66981 | 28273 ft | 459 kts | 334° |
| 2026-05-09 01:21 | 42.10433 | 1.65662 | 28587 ft | 461 kts | 334° |
| 2026-05-09 01:21 | 42.13488 | 1.64340 | 28903 ft | 463 kts | 334° |
| 2026-05-09 01:21 | 42.16566 | 1.63007 | 29210 ft | 465 kts | 334° |
| 2026-05-09 01:22 | 42.19657 | 1.61671 | 29561 ft | 467 kts | 334° |
| 2026-05-09 01:22 | 42.22755 | 1.60330 | 29990 ft | 467 kts | 334° |
| 2026-05-09 01:22 | 42.25842 | 1.58991 | 30362 ft | 466 kts | 334° |
| 2026-05-09 01:22 | 42.28926 | 1.57652 | 30765 ft | 464 kts | 334° |
| 2026-05-09 01:23 | 42.31992 | 1.56320 | 31088 ft | 463 kts | 333° |
| 2026-05-09 01:23 | 42.35059 | 1.54980 | 31328 ft | 463 kts | 333° |
| 2026-05-09 01:23 | 42.38091 | 1.53659 | 31598 ft | 464 kts | 333° |
| 2026-05-09 01:23 | 42.41155 | 1.52325 | 32042 ft | 462 kts | 332° |
| 2026-05-09 01:24 | 42.44264 | 1.51107 | 32316 ft | 469 kts | 338° |
| 2026-05-09 01:24 | 42.47536 | 1.50425 | 32540 ft | 480 kts | 344° |
| 2026-05-09 01:24 | 42.50866 | 1.49973 | 32846 ft | 482 kts | 345° |
| 2026-05-09 01:24 | 42.54200 | 1.49545 | 33127 ft | 480 kts | 344° |
| 2026-05-09 01:25 | 42.57531 | 1.49092 | 33364 ft | 480 kts | 343° |
| 2026-05-09 01:25 | 42.60841 | 1.48569 | 33732 ft | 478 kts | 342° |
| 2026-05-09 01:25 | 42.64107 | 1.48015 | 33965 ft | 478 kts | 342° |
| 2026-05-09 01:25 | 42.67422 | 1.47463 | 34028 ft | 481 kts | 342° |
| 2026-05-09 01:26 | 42.74104 | 1.46375 | 34014 ft | 483 kts | 342° |
| 2026-05-09 01:26 | 42.80722 | 1.45324 | 34014 ft | 475 kts | 342° |
| 2026-05-09 01:27 | 42.87274 | 1.44277 | 34018 ft | 472 kts | 342° |
| 2026-05-09 01:27 | 42.93821 | 1.43201 | 33992 ft | 480 kts | 342° |
| 2026-05-09 01:28 | 43.00459 | 1.42116 | 33994 ft | 481 kts | 342° |
| 2026-05-09 01:28 | 43.07118 | 1.41035 | 33989 ft | 482 kts | 342° |
| 2026-05-09 01:29 | 43.13777 | 1.39952 | 33976 ft | 482 kts | 342° |
| 2026-05-09 01:29 | 43.20440 | 1.38865 | 33968 ft | 481 kts | 342° |
| 2026-05-09 01:30 | 43.27077 | 1.37778 | 33976 ft | 480 kts | 342° |
| 2026-05-09 01:30 | 43.33694 | 1.36693 | 33970 ft | 478 kts | 342° |
| 2026-05-09 01:31 | 43.40246 | 1.35614 | 33968 ft | 476 kts | 342° |
| 2026-05-09 01:31 | 43.46821 | 1.34529 | 33969 ft | 475 kts | 342° |
| 2026-05-09 01:32 | 43.53379 | 1.33445 | 33962 ft | 474 kts | 342° |
| 2026-05-09 01:32 | 43.59918 | 1.32360 | 33967 ft | 473 kts | 342° |
| 2026-05-09 01:33 | 43.66460 | 1.31274 | 33972 ft | 473 kts | 341° |
| 2026-05-09 01:33 | 43.72847 | 1.29676 | 33973 ft | 462 kts | 334° |
| 2026-05-09 01:34 | 43.79030 | 1.27537 | 33975 ft | 460 kts | 333° |
| 2026-05-09 01:34 | 43.85257 | 1.25347 | 33981 ft | 463 kts | 334° |
| 2026-05-09 01:35 | 43.91523 | 1.23208 | 33974 ft | 464 kts | 334° |
| 2026-05-09 01:35 | 43.97818 | 1.21097 | 33970 ft | 465 kts | 334° |
| 2026-05-09 01:36 | 44.04119 | 1.18990 | 33990 ft | 466 kts | 335° |
| 2026-05-09 01:36 | 44.10429 | 1.16875 | 33975 ft | 467 kts | 335° |
| 2026-05-09 01:37 | 44.16744 | 1.14752 | 33967 ft | 466 kts | 335° |
| 2026-05-09 01:37 | 44.23053 | 1.12623 | 33990 ft | 467 kts | 336° |
| 2026-05-09 01:38 | 44.29332 | 1.10501 | 33976 ft | 467 kts | 336° |
| 2026-05-09 01:38 | 44.35649 | 1.08362 | 33966 ft | 467 kts | 336° |
| 2026-05-09 01:39 | 44.41964 | 1.06218 | 33992 ft | 467 kts | 337° |
| 2026-05-09 01:39 | 44.48286 | 1.04065 | 33978 ft | 467 kts | 338° |
| 2026-05-09 01:40 | 44.54592 | 1.01915 | 33972 ft | 466 kts | 338° |
| 2026-05-09 01:40 | 44.60898 | 0.99760 | 33971 ft | 466 kts | 338° |
| 2026-05-09 01:41 | 44.67159 | 0.97614 | 33974 ft | 466 kts | 339° |
| 2026-05-09 01:41 | 44.73462 | 0.95451 | 33971 ft | 465 kts | 339° |
| 2026-05-09 01:42 | 44.79754 | 0.93286 | 33972 ft | 465 kts | 339° |
| 2026-05-09 01:42 | 44.86033 | 0.91121 | 33970 ft | 464 kts | 339° |
| 2026-05-09 01:43 | 44.92295 | 0.88956 | 33967 ft | 464 kts | 339° |
| 2026-05-09 01:43 | 44.98559 | 0.86786 | 33968 ft | 463 kts | 339° |
| 2026-05-09 01:44 | 45.04820 | 0.84611 | 33996 ft | 463 kts | 340° |
| 2026-05-09 01:44 | 45.11092 | 0.82428 | 33993 ft | 464 kts | 340° |
| 2026-05-09 01:45 | 45.17363 | 0.80241 | 33994 ft | 465 kts | 340° |
| 2026-05-09 01:45 | 45.23611 | 0.78055 | 34003 ft | 466 kts | 341° |
| 2026-05-09 01:46 | 45.29914 | 0.75847 | 34002 ft | 467 kts | 341° |
| 2026-05-09 01:46 | 45.36238 | 0.73626 | 33990 ft | 469 kts | 341° |
| 2026-05-09 01:47 | 45.42579 | 0.71394 | 33987 ft | 470 kts | 342° |
| 2026-05-09 01:47 | 45.48942 | 0.69150 | 33977 ft | 471 kts | 342° |
| 2026-05-09 01:48 | 45.55314 | 0.66897 | 33971 ft | 472 kts | 342° |
| 2026-05-09 01:48 | 45.61691 | 0.64636 | 33980 ft | 472 kts | 343° |
| 2026-05-09 01:49 | 45.68035 | 0.62382 | 33971 ft | 473 kts | 343° |
| 2026-05-09 01:49 | 45.74423 | 0.60108 | 33971 ft | 473 kts | 343° |
| 2026-05-09 01:50 | 45.79726 | 0.58215 | 33960 ft | 473 kts | 343° |
| 2026-05-09 01:50 | 45.86122 | 0.55927 | 33974 ft | 472 kts | 343° |
| 2026-05-09 01:51 | 45.92500 | 0.53641 | 33970 ft | 472 kts | 343° |
| 2026-05-09 01:51 | 45.98873 | 0.51351 | 33975 ft | 472 kts | 343° |
| 2026-05-09 01:52 | 46.05244 | 0.49055 | 33977 ft | 472 kts | 343° |
| 2026-05-09 01:52 | 46.11623 | 0.46752 | 33974 ft | 472 kts | 343° |
| 2026-05-09 01:53 | 46.17988 | 0.44448 | 33967 ft | 471 kts | 344° |
| 2026-05-09 01:53 | 46.24312 | 0.42154 | 33971 ft | 471 kts | 344° |
| 2026-05-09 01:54 | 46.30675 | 0.39840 | 34001 ft | 471 kts | 344° |
| 2026-05-09 01:54 | 46.37037 | 0.37520 | 33979 ft | 472 kts | 345° |
| 2026-05-09 01:55 | 46.43402 | 0.35194 | 33976 ft | 472 kts | 344° |
| 2026-05-09 01:55 | 46.49782 | 0.32857 | 33967 ft | 472 kts | 344° |
| 2026-05-09 01:56 | 46.56158 | 0.30751 | 33959 ft | 474 kts | 353° |
| 2026-05-09 01:56 | 46.62732 | 0.31015 | 33960 ft | 474 kts | 12° |
| 2026-05-09 01:57 | 46.69179 | 0.33063 | 33965 ft | 473 kts | 13° |
| 2026-05-09 01:57 | 46.75613 | 0.35167 | 33975 ft | 474 kts | 13° |
| 2026-05-09 01:58 | 46.82058 | 0.37195 | 33981 ft | 474 kts | 12° |
| 2026-05-09 01:58 | 46.88472 | 0.39182 | 33985 ft | 474 kts | 12° |
| 2026-05-09 01:59 | 46.94927 | 0.41185 | 33975 ft | 473 kts | 13° |
| 2026-05-09 01:59 | 47.01362 | 0.43192 | 33991 ft | 472 kts | 14° |
| 2026-05-09 02:00 | 47.07828 | 0.44826 | 33994 ft | 473 kts | 4° |
| 2026-05-09 02:00 | 47.14383 | 0.43982 | 34010 ft | 474 kts | 351° |
| 2026-05-09 02:01 | 47.20834 | 0.42274 | 33980 ft | 474 kts | 352° |
| 2026-05-09 02:01 | 47.27328 | 0.40609 | 34003 ft | 473 kts | 352° |
| 2026-05-09 02:02 | 47.33825 | 0.39010 | 34004 ft | 474 kts | 353° |
| 2026-05-09 02:02 | 47.40344 | 0.37414 | 33988 ft | 475 kts | 353° |
| 2026-05-09 02:03 | 47.43613 | 0.36611 | 33697 ft | 480 kts | 353° |
| 2026-05-09 02:03 | 47.46918 | 0.35798 | 33076 ft | 481 kts | 353° |
| 2026-05-09 02:03 | 47.50219 | 0.34980 | 32429 ft | 480 kts | 353° |
| 2026-05-09 02:03 | 47.53503 | 0.34165 | 31986 ft | 475 kts | 353° |
| 2026-05-09 02:04 | 47.56752 | 0.33355 | 31502 ft | 472 kts | 353° |
| 2026-05-09 02:04 | 47.59974 | 0.32553 | 31034 ft | 468 kts | 353° |
| 2026-05-09 02:04 | 47.63173 | 0.31756 | 30578 ft | 464 kts | 353° |
| 2026-05-09 02:04 | 47.66352 | 0.30963 | 30129 ft | 461 kts | 353° |
| 2026-05-09 02:05 | 47.69504 | 0.30177 | 29595 ft | 458 kts | 353° |
| 2026-05-09 02:05 | 47.72632 | 0.29396 | 29090 ft | 454 kts | 353° |
| 2026-05-09 02:05 | 47.75734 | 0.28619 | 28639 ft | 449 kts | 352° |
| 2026-05-09 02:05 | 47.78777 | 0.28196 | 28139 ft | 441 kts | 7° |
| 2026-05-09 02:06 | 47.81721 | 0.29099 | 27827 ft | 426 kts | 24° |
| 2026-05-09 02:06 | 47.84318 | 0.31052 | 27489 ft | 413 kts | 38° |
| 2026-05-09 02:06 | 47.86673 | 0.33554 | 27198 ft | 420 kts | 40° |
| 2026-05-09 02:07 | 47.91464 | 0.38738 | 26522 ft | 426 kts | 39° |
| 2026-05-09 02:07 | 47.93876 | 0.41273 | 26187 ft | 422 kts | 39° |
| 2026-05-09 02:07 | 47.96272 | 0.43777 | 25840 ft | 419 kts | 39° |
| 2026-05-09 02:07 | 47.98645 | 0.46260 | 25534 ft | 416 kts | 39° |
| 2026-05-09 02:08 | 48.01011 | 0.48742 | 25221 ft | 413 kts | 39° |
| 2026-05-09 02:08 | 48.03353 | 0.51203 | 24912 ft | 411 kts | 39° |
| 2026-05-09 02:08 | 48.05685 | 0.53659 | 24605 ft | 409 kts | 39° |
| 2026-05-09 02:08 | 48.07985 | 0.56085 | 24299 ft | 408 kts | 38° |
| 2026-05-09 02:09 | 48.10305 | 0.58534 | 23988 ft | 408 kts | 38° |
| 2026-05-09 02:09 | 48.12615 | 0.60976 | 23682 ft | 407 kts | 38° |
| 2026-05-09 02:09 | 48.14927 | 0.63422 | 23316 ft | 407 kts | 38° |
| 2026-05-09 02:09 | 48.17231 | 0.65863 | 22972 ft | 405 kts | 38° |
| 2026-05-09 02:10 | 48.19533 | 0.68303 | 22643 ft | 403 kts | 38° |
| 2026-05-09 02:10 | 48.21816 | 0.70726 | 22328 ft | 401 kts | 38° |
| 2026-05-09 02:10 | 48.24088 | 0.73140 | 22024 ft | 399 kts | 38° |
| 2026-05-09 02:10 | 48.26344 | 0.75540 | 21717 ft | 397 kts | 37° |
| 2026-05-09 02:11 | 48.28589 | 0.77931 | 21406 ft | 394 kts | 37° |
| 2026-05-09 02:11 | 48.30816 | 0.80305 | 21110 ft | 392 kts | 37° |
| 2026-05-09 02:11 | 48.33034 | 0.82672 | 20817 ft | 390 kts | 38° |
| 2026-05-09 02:11 | 48.35002 | 0.85416 | 20487 ft | 384 kts | 57° |
| 2026-05-09 02:12 | 48.36318 | 0.88868 | 20239 ft | 379 kts | 65° |
| 2026-05-09 02:12 | 48.37498 | 0.92404 | 19936 ft | 378 kts | 65° |
| 2026-05-09 02:12 | 48.38681 | 0.95936 | 19648 ft | 377 kts | 64° |
| 2026-05-09 02:12 | 48.39881 | 0.99450 | 19367 ft | 377 kts | 64° |
| 2026-05-09 02:13 | 48.41089 | 1.02952 | 19071 ft | 377 kts | 64° |
| 2026-05-09 02:13 | 48.42309 | 1.06482 | 18489 ft | 383 kts | 63° |
| 2026-05-09 02:13 | 48.43542 | 1.10059 | 17852 ft | 386 kts | 63° |
| 2026-05-09 02:13 | 48.44778 | 1.13650 | 17212 ft | 386 kts | 63° |
| 2026-05-09 02:14 | 48.45999 | 1.17206 | 16597 ft | 387 kts | 63° |
| 2026-05-09 02:14 | 48.47233 | 1.20801 | 15997 ft | 386 kts | 63° |
| 2026-05-09 02:14 | 48.48466 | 1.24400 | 15403 ft | 386 kts | 63° |
| 2026-05-09 02:14 | 48.49694 | 1.27989 | 14817 ft | 386 kts | 63° |
| 2026-05-09 02:15 | 48.50925 | 1.31594 | 14214 ft | 385 kts | 63° |
| 2026-05-09 02:15 | 48.52153 | 1.35182 | 13603 ft | 385 kts | 63° |
| 2026-05-09 02:15 | 48.53385 | 1.38769 | 12958 ft | 385 kts | 62° |
| 2026-05-09 02:15 | 48.54614 | 1.42347 | 12339 ft | 383 kts | 62° |
| 2026-05-09 02:16 | 48.55839 | 1.45921 | 11746 ft | 382 kts | 62° |
| 2026-05-09 02:16 | 48.57177 | 1.49362 | 11136 ft | 380 kts | 50° |
| 2026-05-09 02:16 | 48.59159 | 1.51906 | 10867 ft | 367 kts | 30° |
| 2026-05-09 02:16 | 48.61380 | 1.53678 | 10627 ft | 356 kts | 24° |
| 2026-05-09 02:17 | 48.63594 | 1.55244 | 10378 ft | 346 kts | 23° |
| 2026-05-09 02:17 | 48.65756 | 1.56762 | 10162 ft | 338 kts | 23° |
| 2026-05-09 02:17 | 48.67855 | 1.58270 | 10002 ft | 327 kts | 24° |
| 2026-05-09 02:17 | 48.69860 | 1.59739 | 10002 ft | 313 kts | 24° |
| 2026-05-09 02:18 | 48.71773 | 1.61155 | 9989 ft | 300 kts | 24° |
| 2026-05-09 02:18 | 48.73608 | 1.62517 | 9960 ft | 288 kts | 24° |
| 2026-05-09 02:18 | 48.75211 | 1.64347 | 9293 ft | 300 kts | 52° |
| 2026-05-09 02:18 | 48.76341 | 1.66992 | 8972 ft | 299 kts | 60° |
| 2026-05-09 02:19 | 48.77320 | 1.69740 | 8772 ft | 293 kts | 62° |
| 2026-05-09 02:19 | 48.78252 | 1.72453 | 8555 ft | 283 kts | 62° |
| 2026-05-09 02:19 | 48.79151 | 1.75065 | 8348 ft | 278 kts | 62° |
| 2026-05-09 02:19 | 48.80054 | 1.77661 | 8088 ft | 278 kts | 62° |
| 2026-05-09 02:20 | 48.80961 | 1.80247 | 7837 ft | 278 kts | 62° |
| 2026-05-09 02:20 | 48.81874 | 1.82834 | 7599 ft | 277 kts | 62° |
| 2026-05-09 02:20 | 48.82783 | 1.85404 | 7350 ft | 275 kts | 62° |
| 2026-05-09 02:20 | 48.83687 | 1.87959 | 7105 ft | 274 kts | 62° |
| 2026-05-09 02:21 | 48.84578 | 1.90469 | 6839 ft | 266 kts | 62° |
| 2026-05-09 02:21 | 48.85442 | 1.92907 | 6774 ft | 259 kts | 62° |
| 2026-05-09 02:21 | 48.86279 | 1.95273 | 6766 ft | 255 kts | 62° |
| 2026-05-09 02:21 | 48.87103 | 1.97601 | 6745 ft | 245 kts | 63° |
| 2026-05-09 02:22 | 48.87924 | 1.99829 | 6625 ft | 239 kts | 55° |
| 2026-05-09 02:22 | 48.89031 | 2.01676 | 6480 ft | 233 kts | 45° |
| 2026-05-09 02:22 | 48.90165 | 2.03379 | 6355 ft | 224 kts | 46° |
| 2026-05-09 02:22 | 48.91238 | 2.05025 | 6193 ft | 213 kts | 46° |
| 2026-05-09 02:23 | 48.92250 | 2.06598 | 6046 ft | 202 kts | 46° |
| 2026-05-09 02:23 | 48.93224 | 2.08123 | 5917 ft | 200 kts | 47° |
| 2026-05-09 02:23 | 48.94190 | 2.09642 | 5776 ft | 199 kts | 47° |
| 2026-05-09 02:23 | 48.95150 | 2.11155 | 5659 ft | 198 kts | 47° |
| 2026-05-09 02:24 | 48.96105 | 2.12661 | 5520 ft | 198 kts | 47° |
| 2026-05-09 02:24 | 48.96916 | 2.14277 | 5331 ft | 187 kts | 74° |
| 2026-05-09 02:24 | 48.97110 | 2.16122 | 5250 ft | 176 kts | 83° |
| 2026-05-09 02:24 | 48.97262 | 2.17923 | 5276 ft | 171 kts | 85° |
| 2026-05-09 02:25 | 48.97384 | 2.19722 | 5067 ft | 168 kts | 86° |
| 2026-05-09 02:25 | 48.97484 | 2.21462 | 4868 ft | 165 kts | 86° |
| 2026-05-09 02:25 | 48.97575 | 2.23174 | 4624 ft | 160 kts | 86° |
| 2026-05-09 02:25 | 48.97661 | 2.24839 | 4412 ft | 157 kts | 86° |
| 2026-05-09 02:26 | 48.97744 | 2.26496 | 4201 ft | 157 kts | 86° |
| 2026-05-09 02:26 | 48.97827 | 2.28153 | 3989 ft | 156 kts | 86° |
| 2026-05-09 02:26 | 48.97910 | 2.29790 | 3782 ft | 155 kts | 86° |
| 2026-05-09 02:26 | 48.97992 | 2.31416 | 3577 ft | 153 kts | 86° |
| 2026-05-09 02:27 | 48.98074 | 2.33030 | 3389 ft | 153 kts | 86° |
| 2026-05-09 02:27 | 48.98158 | 2.34687 | 3181 ft | 163 kts | 86° |
| 2026-05-09 02:27 | 48.98249 | 2.36483 | 2929 ft | 175 kts | 86° |
| 2026-05-09 02:27 | 48.98337 | 2.38363 | 2602 ft | 181 kts | 87° |
| 2026-05-09 02:28 | 48.98403 | 2.40273 | 2240 ft | 178 kts | 87° |
| 2026-05-09 02:28 | 48.98486 | 2.42078 | 2118 ft | 166 kts | 86° |
| 2026-05-09 02:28 | 48.98580 | 2.43822 | 1880 ft | 165 kts | 85° |
| 2026-05-09 02:28 | 48.98692 | 2.45545 | 1705 ft | 161 kts | 83° |
| 2026-05-09 02:29 | 48.98843 | 2.47220 | 1513 ft | 158 kts | 83° |
| 2026-05-09 02:29 | 48.98923 | 2.48878 | 1324 ft | 156 kts | 91° |
| 2026-05-09 02:29 | 48.98940 | 2.50503 | 1225 ft | 148 kts | 86° |
| 2026-05-09 02:29 | 48.99042 | 2.51987 | 1134 ft | 138 kts | 82° |
| 2026-05-09 02:30 | 48.99142 | 2.53474 | 868 ft | 148 kts | 82° |
| 2026-05-09 02:30 | 48.99204 | 2.55048 | 712 ft | 143 kts | 82° |
| 2026-05-09 02:30 | 48.99287 | 2.56518 | 520 ft | 136 kts | 81° |
| 2026-05-09 02:30 | 48.99356 | 2.57897 | 377 ft | 126 kts | 80° |
| 2026-05-09 02:31 | 48.99431 | 2.59102 | 350 ft | 99 kts | 90° |
| 2026-05-09 02:31 | 48.99464 | 2.59761 | 352 ft | 40 kts | 73° |
| 2026-05-09 02:31 | 48.99564 | 2.59970 | 355 ft | 12 kts | 21° |
| 2026-05-09 02:31 | 48.99649 | 2.59981 | 353 ft | 12 kts | 357° |
| 2026-05-09 02:32 | 48.99702 | 2.59971 | 355 ft | 4 kts | 353° |
| 2026-05-09 02:32 | 48.99728 | 2.59968 | 357 ft | 4 kts | 355° |
| 2026-05-09 02:32 | 48.99753 | 2.59964 | 356 ft | 4 kts | 354° |
| 2026-05-09 02:32 | 48.99807 | 2.59957 | 360 ft | 10 kts | 354° |
| 2026-05-09 02:33 | 48.99878 | 2.59974 | 358 ft | 11 kts | 30° |
| 2026-05-09 02:33 | 48.99928 | 2.60051 | 352 ft | 10 kts | 39° |
| 2026-05-09 02:33 | 48.99993 | 2.60062 | 353 ft | 10 kts | 326° |
| 2026-05-09 02:33 | 49.00010 | 2.59964 | 355 ft | 10 kts | 265° |
| 2026-05-09 02:34 | 49.00002 | 2.59833 | 358 ft | 15 kts | 265° |
| 2026-05-09 02:34 | 48.99994 | 2.59675 | 353 ft | 15 kts | 264° |
| 2026-05-09 02:34 | 48.99986 | 2.59523 | 359 ft | 14 kts | 265° |
| 2026-05-09 02:34 | 48.99978 | 2.59377 | 353 ft | 14 kts | 265° |
| 2026-05-09 02:35 | 48.99971 | 2.59234 | 353 ft | 14 kts | 265° |
| 2026-05-09 02:35 | 48.99963 | 2.59094 | 353 ft | 13 kts | 266° |
| 2026-05-09 02:35 | 48.99957 | 2.58958 | 357 ft | 13 kts | 265° |
| 2026-05-09 02:35 | 48.99949 | 2.58816 | 359 ft | 19 kts | 265° |
| 2026-05-09 02:36 | 48.99936 | 2.58585 | 353 ft | 22 kts | 265° |
| 2026-05-09 02:36 | 48.99924 | 2.58354 | 353 ft | 22 kts | 265° |
| 2026-05-09 02:36 | 48.99912 | 2.58130 | 357 ft | 21 kts | 265° |
| 2026-05-09 02:36 | 48.99901 | 2.57913 | 355 ft | 20 kts | 265° |
| 2026-05-09 02:37 | 48.99889 | 2.57702 | 353 ft | 20 kts | 265° |
| 2026-05-09 02:37 | 48.99882 | 2.57566 | 353 ft | 19 kts | 266° |
| 2026-05-09 02:37 | 48.99872 | 2.57366 | 357 ft | 19 kts | 266° |
| 2026-05-09 02:37 | 48.99862 | 2.57173 | 356 ft | 18 kts | 266° |
| 2026-05-09 02:38 | 48.99852 | 2.56986 | 356 ft | 17 kts | 266° |
| 2026-05-09 02:38 | 48.99842 | 2.56806 | 357 ft | 17 kts | 264° |
| 2026-05-09 02:38 | 48.99834 | 2.56633 | 353 ft | 16 kts | 263° |
| 2026-05-09 02:38 | 48.99824 | 2.56466 | 353 ft | 15 kts | 266° |
| 2026-05-09 02:39 | 48.99816 | 2.56306 | 353 ft | 15 kts | 264° |
| 2026-05-09 02:39 | 48.99807 | 2.56153 | 353 ft | 14 kts | 265° |
| 2026-05-09 02:39 | 48.99801 | 2.56005 | 362 ft | 14 kts | 268° |
| 2026-05-09 02:39 | 48.99810 | 2.55866 | 355 ft | 13 kts | 285° |
| 2026-05-09 02:40 | 48.99835 | 2.55736 | 353 ft | 13 kts | 287° |
| 2026-05-09 02:40 | 48.99880 | 2.55612 | 353 ft | 15 kts | 309° |
| 2026-05-09 02:40 | 48.99896 | 2.55463 | 353 ft | 14 kts | 264° |
| 2026-05-09 02:40 | 48.99889 | 2.55315 | 353 ft | 14 kts | 266° |
| 2026-05-09 02:41 | 48.99881 | 2.55175 | 353 ft | 13 kts | 264° |
| 2026-05-09 02:41 | 48.99887 | 2.55041 | 359 ft | 13 kts | 300° |
| 2026-05-09 02:41 | 48.99953 | 2.54958 | 353 ft | 12 kts | 299° |
| 2026-05-09 02:41 | 48.99954 | 2.54830 | 353 ft | 12 kts | 265° |
| 2026-05-09 02:42 | 48.99947 | 2.54704 | 360 ft | 12 kts | 265° |
| 2026-05-09 02:42 | 48.99939 | 2.54537 | 353 ft | 18 kts | 266° |
| 2026-05-09 02:42 | 48.99933 | 2.54418 | 353 ft | 0 kts | 264° |
| 2026-05-09 02:43 | 48.99929 | 2.54373 | 358 ft | 7 kts | 263° |
| 2026-05-09 02:43 | 48.99938 | 2.54324 | 360 ft | 0 kts | 337° |
| 2026-05-09 02:43 | 48.99957 | 2.54302 | 353 ft | 0 kts | 332° |
| 2026-05-09 02:44 | 48.99958 | 2.54302 | 353 ft | 1 kts | 339° |
| 2026-05-09 02:44 | 48.99981 | 2.54302 | 353 ft | 4 kts | 358° |
| 2026-05-09 02:44 | 49.00011 | 2.54298 | 358 ft | 4 kts | 355° |
| 2026-05-09 02:44 | 49.00014 | 2.54298 | 357 ft | 0 kts | 355° |
| 2026-05-09 02:51 | 48.98172 | 2.34962 | 3151 ft | 165 kts | 86° |
| 2026-05-09 02:51 | 48.98264 | 2.36777 | 2913 ft | 175 kts | 86° |
| 2026-05-09 02:51 | 48.98348 | 2.38665 | 2537 ft | 181 kts | 88° |
| 2026-05-09 02:51 | 48.98417 | 2.40569 | 2228 ft | 176 kts | 86° |
| 2026-05-09 02:52 | 48.98500 | 2.42356 | 2091 ft | 166 kts | 86° |
| 2026-05-09 02:52 | 48.98598 | 2.44096 | 1847 ft | 165 kts | 84° |
| 2026-05-09 02:52 | 48.98715 | 2.45814 | 1682 ft | 160 kts | 83° |
| 2026-05-09 02:52 | 48.98864 | 2.47481 | 1476 ft | 158 kts | 84° |
| 2026-05-09 02:53 | 48.98920 | 2.49139 | 1300 ft | 156 kts | 91° |
| 2026-05-09 02:53 | 48.98949 | 2.50748 | 1254 ft | 144 kts | 86° |
| 2026-05-09 02:53 | 48.99060 | 2.52197 | 1104 ft | 138 kts | 82° |
| 2026-05-09 02:53 | 48.99153 | 2.53726 | 839 ft | 150 kts | 85° |
| 2026-05-09 02:54 | 48.99215 | 2.55288 | 680 ft | 142 kts | 83° |
| 2026-05-09 02:54 | 48.99299 | 2.56744 | 501 ft | 134 kts | 84° |
| 2026-05-09 02:54 | 48.99370 | 2.58089 | 368 ft | 124 kts | 79° |
| 2026-05-09 02:54 | 48.99432 | 2.59247 | 350 ft | 91 kts | 88° |
| 2026-05-09 02:55 | 48.99479 | 2.59816 | 357 ft | 37 kts | 67° |
| 2026-05-09 02:55 | 48.99576 | 2.59975 | 353 ft | 23 kts | 13° |